createdAt,value
2018-11-12T00:01:13.382Z,12.50
2018-11-12T00:03:41.864Z,12.50
2018-11-12T00:06:10.349Z,12.50
2018-11-12T00:08:38.852Z,12.50
2018-11-12T00:11:07.330Z,12.30
2018-11-12T00:13:35.784Z,12.40
2018-11-12T00:16:04.277Z,12.30
2018-11-12T00:18:32.755Z,12.10
2018-11-12T00:21:01.232Z,12.10
2018-11-12T00:23:29.689Z,11.90
2018-11-12T00:25:58.167Z,12.00
2018-11-12T00:28:26.628Z,12.00
2018-11-12T00:30:55.090Z,11.90
2018-11-12T00:33:23.522Z,11.70
2018-11-12T00:35:51.987Z,11.80
2018-11-12T00:38:20.421Z,11.80
2018-11-12T00:40:48.881Z,11.80
2018-11-12T00:43:17.307Z,11.80
2018-11-12T00:45:45.755Z,11.70
2018-11-12T00:48:14.288Z,11.70
2018-11-12T00:50:42.789Z,11.70
2018-11-12T00:53:11.280Z,11.70
2018-11-12T00:55:39.741Z,11.70
2018-11-12T00:58:08.176Z,11.10
2018-11-12T01:00:36.616Z,11.10
2018-11-12T01:03:05.617Z,11.30
2018-11-12T01:05:34.068Z,11.40
2018-11-12T01:08:02.528Z,11.20
2018-11-12T01:10:30.964Z,11.40
2018-11-12T01:12:59.396Z,11.40
2018-11-12T01:15:27.859Z,11.30
2018-11-12T01:17:56.289Z,11.10
2018-11-12T01:20:24.760Z,10.90
2018-11-12T01:22:53.186Z,11.00
2018-11-12T01:25:21.673Z,10.90
2018-11-12T01:27:50.160Z,10.80
2018-11-12T01:30:19.263Z,10.90
2018-11-12T01:32:47.882Z,10.90
2018-11-12T01:35:17.326Z,10.50
2018-11-12T01:37:45.946Z,10.60
2018-11-12T01:40:15.256Z,10.40
2018-11-12T01:42:44.181Z,10.00
2018-11-12T01:45:14.568Z,9.90
2018-11-12T01:47:44.100Z,10.20
2018-11-12T01:50:13.124Z,10.20
2018-11-12T01:52:42.388Z,10.40
2018-11-12T01:55:12.088Z,10.60
2018-11-12T01:57:40.574Z,10.70
2018-11-12T02:00:12.141Z,10.80
2018-11-12T02:02:40.816Z,10.80
2018-11-12T02:05:09.804Z,10.90
2018-11-12T02:10:13.340Z,11.00
2018-11-12T02:12:42.253Z,11.10
2018-11-12T02:15:13.260Z,11.00
2018-11-12T02:17:42.263Z,11.20
2018-11-12T02:20:12.477Z,11.70
2018-11-12T02:22:45.368Z,11.90
2018-11-12T02:25:14.454Z,11.90
2018-11-12T02:27:42.936Z,11.90
2018-11-12T02:30:21.669Z,12.00
2018-11-12T02:32:50.113Z,12.10
2018-11-12T02:35:18.567Z,12.00
2018-11-12T02:37:47.020Z,12.20
2018-11-12T02:40:15.470Z,12.10
2018-11-12T02:42:44.420Z,12.00
2018-11-12T02:45:13.807Z,12.00
2018-11-12T02:47:43.172Z,12.00
2018-11-12T02:50:17.013Z,12.00
2018-11-12T02:52:45.541Z,12.10
2018-11-12T02:55:14.874Z,12.10
2018-11-12T02:57:44.189Z,12.10
2018-11-12T03:00:16.334Z,12.10
2018-11-12T03:02:45.148Z,12.10
2018-11-12T03:05:13.769Z,11.90
2018-11-12T03:07:42.510Z,11.80
2018-11-12T03:10:13.145Z,11.70
2018-11-12T03:12:41.819Z,11.60
2018-11-12T03:15:11.445Z,11.20
2018-11-12T03:17:40.465Z,11.10
2018-11-12T03:20:11.044Z,11.30
2018-11-12T03:22:39.680Z,11.20
2018-11-12T03:25:09.573Z,11.20
2018-11-12T03:27:38.089Z,11.20
2018-11-12T03:30:07.974Z,11.20
2018-11-12T03:32:36.435Z,11.20
2018-11-12T03:35:05.320Z,11.20
2018-11-12T03:37:33.759Z,11.20
2018-11-12T03:40:02.229Z,11.30
2018-11-12T03:42:30.681Z,11.40
2018-11-12T03:44:59.189Z,11.50
2018-11-12T03:47:27.639Z,11.60
2018-11-12T03:49:56.097Z,11.80
2018-11-12T03:52:24.539Z,11.90
2018-11-12T03:54:53.004Z,11.80
2018-11-12T03:57:21.439Z,11.80
2018-11-12T03:59:49.905Z,11.70
2018-11-12T04:02:18.349Z,11.80
2018-11-12T04:04:46.823Z,11.80
2018-11-12T04:07:15.282Z,11.80
2018-11-12T04:09:43.745Z,11.80
2018-11-12T04:12:12.175Z,11.70
2018-11-12T04:14:40.656Z,11.60
2018-11-12T04:17:09.092Z,11.50
2018-11-12T04:19:37.543Z,11.60
2018-11-12T04:22:06.018Z,11.50
2018-11-12T04:24:34.505Z,11.40
2018-11-12T04:27:02.977Z,11.50
2018-11-12T04:29:31.429Z,11.50
2018-11-12T04:31:59.850Z,11.50
2018-11-12T04:34:28.338Z,11.60
2018-11-12T04:36:56.800Z,11.30
2018-11-12T04:39:25.258Z,11.20
2018-11-12T04:41:53.709Z,11.00
2018-11-12T04:44:22.185Z,10.90
2018-11-12T04:46:50.616Z,10.80
2018-11-12T04:49:19.051Z,10.80
2018-11-12T04:51:47.610Z,10.90
2018-11-12T04:54:16.081Z,10.80
2018-11-12T04:56:44.536Z,10.70
2018-11-12T04:59:13.016Z,10.90
2018-11-12T05:01:41.487Z,10.80
2018-11-12T05:04:09.946Z,10.60
2018-11-12T05:06:38.412Z,10.80
2018-11-12T05:09:08.569Z,10.80
2018-11-12T05:11:37.019Z,11.10
2018-11-12T05:14:05.507Z,11.10
2018-11-12T05:16:33.997Z,10.90
2018-11-12T05:19:02.429Z,10.70
2018-11-12T05:21:30.882Z,10.60
2018-11-12T05:24:00.347Z,10.50
2018-11-12T05:26:28.899Z,10.70
2018-11-12T05:28:57.412Z,10.90
2018-11-12T05:31:25.887Z,10.60
2018-11-12T05:33:54.346Z,10.50
2018-11-12T05:36:22.845Z,10.50
2018-11-12T05:38:51.307Z,10.80
2018-11-12T05:41:19.790Z,10.80
2018-11-12T05:43:48.361Z,10.80
2018-11-12T05:46:16.844Z,10.50
2018-11-12T05:48:45.318Z,10.30
2018-11-12T05:51:17.420Z,10.30
2018-11-12T05:53:45.886Z,10.40
2018-11-12T05:56:14.374Z,10.50
2018-11-12T05:58:42.834Z,10.50
2018-11-12T06:01:11.311Z,10.40
2018-11-12T06:03:39.776Z,10.40
2018-11-12T06:06:08.261Z,10.50
2018-11-12T06:08:40.535Z,10.50
2018-11-12T06:11:09.017Z,10.40
2018-11-12T06:13:37.494Z,10.50
2018-11-12T06:16:07.131Z,10.70
2018-11-12T06:18:35.590Z,10.90
2018-11-12T06:21:04.087Z,10.90
2018-11-12T06:23:32.585Z,10.80
2018-11-12T06:26:01.056Z,10.90
2018-11-12T06:28:29.541Z,11.00
2018-11-12T06:30:58.019Z,10.90
2018-11-12T06:33:26.519Z,10.50
2018-11-12T06:35:55.016Z,10.30
2018-11-12T06:38:23.506Z,10.20
2018-11-12T06:40:51.972Z,10.20
2018-11-12T06:43:20.495Z,10.30
2018-11-12T06:45:48.974Z,10.50
2018-11-12T06:48:17.482Z,10.70
2018-11-12T06:50:45.944Z,10.70
2018-11-12T06:53:14.450Z,10.60
2018-11-12T06:55:42.903Z,10.70
2018-11-12T06:58:12.440Z,10.50
2018-11-12T07:00:40.957Z,10.70
2018-11-12T07:03:11.462Z,10.80
2018-11-12T07:05:39.945Z,10.90
2018-11-12T07:08:08.444Z,10.90
2018-11-12T07:10:36.924Z,11.00
2018-11-12T07:13:05.732Z,11.10
2018-11-12T07:15:34.202Z,11.10
2018-11-12T07:18:02.713Z,11.20
2018-11-12T07:20:31.199Z,11.10
2018-11-12T07:22:59.694Z,11.10
2018-11-12T07:25:29.419Z,11.10
2018-11-12T07:27:58.005Z,11.00
2018-11-12T07:30:27.397Z,11.10
2018-11-12T07:32:56.912Z,11.50
2018-11-12T07:35:25.732Z,11.60
2018-11-12T07:37:55.127Z,11.60
2018-11-12T07:40:24.249Z,11.70
2018-11-12T07:42:53.790Z,11.80
2018-11-12T07:45:23.773Z,11.90
2018-11-12T07:47:53.154Z,11.80
2018-11-12T07:50:22.865Z,11.90
2018-11-12T07:52:51.366Z,11.80
2018-11-12T07:55:21.254Z,11.80
2018-11-12T07:57:50.965Z,11.70
2018-11-12T08:00:24.089Z,11.80
2018-11-12T08:02:57.839Z,11.90
2018-11-12T08:05:26.303Z,12.00
2018-11-12T08:07:54.776Z,11.90
2018-11-12T08:10:23.284Z,11.90
2018-11-12T08:12:51.742Z,11.70
2018-11-12T08:15:20.520Z,11.60
2018-11-12T08:17:49.064Z,11.70
2018-11-12T08:20:18.788Z,11.80
2018-11-12T08:22:48.237Z,11.70
2018-11-12T08:25:16.829Z,11.70
2018-11-12T08:27:45.704Z,11.70
2018-11-12T08:30:17.126Z,11.70
2018-11-12T08:32:46.715Z,11.60
2018-11-12T08:35:15.833Z,11.60
2018-11-12T08:37:44.680Z,11.70
2018-11-12T08:40:14.650Z,11.70
2018-11-12T08:42:43.488Z,11.80
2018-11-12T08:45:12.520Z,11.90
2018-11-12T08:47:41.979Z,12.00
2018-11-12T08:50:12.231Z,11.80
2018-11-12T08:52:41.625Z,11.80
2018-11-12T08:55:12.153Z,11.80
2018-11-12T08:57:41.717Z,11.80
2018-11-12T09:00:11.295Z,11.90
2018-11-12T09:02:39.931Z,12.10
2018-11-12T09:05:10.361Z,12.10
2018-11-12T09:07:39.582Z,12.20
2018-11-12T09:10:11.994Z,12.30
2018-11-12T09:12:41.068Z,12.40
2018-11-12T09:15:10.248Z,12.60
2018-11-12T09:17:40.807Z,12.60
2018-11-12T09:20:11.632Z,12.80
2018-11-12T09:22:40.128Z,12.50
2018-11-12T09:25:12.292Z,12.50
2018-11-12T09:27:40.932Z,12.60
2018-11-12T09:30:13.330Z,12.70
2018-11-12T09:32:42.452Z,12.80
2018-11-12T09:35:12.735Z,12.70
2018-11-12T09:37:41.669Z,12.80
2018-11-12T09:40:14.091Z,12.90
2018-11-12T09:42:42.643Z,13.00
2018-11-12T09:45:11.716Z,13.30
2018-11-12T09:47:40.965Z,13.40
2018-11-12T09:50:11.968Z,13.50
2018-11-12T09:52:41.256Z,13.50
2018-11-12T09:55:10.639Z,13.60
2018-11-12T09:57:40.055Z,13.70
2018-11-12T10:00:10.879Z,13.60
2018-11-12T10:02:40.053Z,13.60
2018-11-12T10:05:08.977Z,13.50
2018-11-12T10:07:38.894Z,13.90
2018-11-12T10:10:19.415Z,14.20
2018-11-12T10:12:49.415Z,14.20
2018-11-12T10:15:16.758Z,14.40
2018-11-12T10:17:45.385Z,14.40
2018-11-12T10:20:11.470Z,14.40
2018-11-12T10:22:39.941Z,14.50
2018-11-12T10:25:08.437Z,14.50
2018-11-12T10:27:37.000Z,14.50
2018-11-12T10:30:06.345Z,14.40
2018-11-12T10:32:34.804Z,14.50
2018-11-12T10:35:03.232Z,14.40
2018-11-12T10:37:31.697Z,14.30
2018-11-12T10:40:00.122Z,14.20
2018-11-12T10:42:28.571Z,14.20
2018-11-12T10:44:57.036Z,14.30
2018-11-12T10:47:25.468Z,14.20
2018-11-12T10:49:54.673Z,14.20
2018-11-12T10:52:23.108Z,14.40
2018-11-12T10:55:04.895Z,14.50
2018-11-12T10:57:20.046Z,14.20
2018-11-12T10:59:48.566Z,14.30
2018-11-12T11:02:22.198Z,14.10
2018-11-12T11:04:50.673Z,14.00
2018-11-12T11:07:19.118Z,14.20
2018-11-12T11:09:47.579Z,14.60
2018-11-12T11:12:16.026Z,14.80
2018-11-12T11:14:44.475Z,14.80
2018-11-12T11:17:12.924Z,14.90
2018-11-12T11:19:41.439Z,15.00
2018-11-12T11:22:09.861Z,14.80
2018-11-12T11:24:38.375Z,14.90
2018-11-12T11:27:06.860Z,14.90
2018-11-12T11:29:35.318Z,15.00
2018-11-12T11:32:03.774Z,14.90
2018-11-12T11:34:32.241Z,14.90
2018-11-12T11:37:00.705Z,14.90
2018-11-12T11:39:29.155Z,14.90
2018-11-12T11:41:57.607Z,14.80
2018-11-12T11:44:26.143Z,14.90
2018-11-12T11:46:54.630Z,14.90
2018-11-12T11:49:23.131Z,14.90
2018-11-12T11:51:51.572Z,14.90
2018-11-12T11:54:20.036Z,14.70
2018-11-12T11:56:48.679Z,14.70
2018-11-12T11:59:16.998Z,14.80
2018-11-12T12:01:45.546Z,14.80
2018-11-12T12:04:13.959Z,14.80
2018-11-12T12:06:42.407Z,14.80
2018-11-12T12:09:10.936Z,14.70
2018-11-12T12:11:39.323Z,14.80
2018-11-12T12:14:07.772Z,14.80
2018-11-12T12:16:36.210Z,14.80
2018-11-12T12:19:04.664Z,14.90
2018-11-12T12:21:33.111Z,14.80
2018-11-12T12:24:01.541Z,14.80
2018-11-12T12:26:30.013Z,14.80
2018-11-12T12:28:58.510Z,14.80
2018-11-12T12:31:26.985Z,14.80
2018-11-12T12:33:55.430Z,14.70
2018-11-12T12:36:24.037Z,14.70
2018-11-12T12:38:52.385Z,14.70
2018-11-12T12:41:20.920Z,14.80
2018-11-12T12:43:49.368Z,15.00
2018-11-12T12:46:17.832Z,15.10
2018-11-12T12:48:46.265Z,15.10
2018-11-12T12:51:15.211Z,15.20
2018-11-12T12:53:43.660Z,15.30
2018-11-12T12:56:12.873Z,15.40
2018-11-12T12:58:41.270Z,14.50
2018-11-12T13:01:09.762Z,14.50
2018-11-12T13:03:38.212Z,14.60
2018-11-12T13:06:07.700Z,14.60
2018-11-12T13:08:36.137Z,14.50
2018-11-12T13:11:04.629Z,14.40
2018-11-12T13:13:33.108Z,14.60
2018-11-12T13:16:01.563Z,14.80
2018-11-12T13:18:30.045Z,15.00
2018-11-12T13:20:58.544Z,15.10
2018-11-12T13:23:41.448Z,15.20
2018-11-12T13:26:09.890Z,15.30
2018-11-12T13:28:38.453Z,15.40
2018-11-12T13:31:06.940Z,15.40
2018-11-12T13:33:35.443Z,15.50
2018-11-12T13:36:04.016Z,15.50
2018-11-12T13:38:32.496Z,15.50
2018-11-12T13:41:00.958Z,15.60
2018-11-12T13:43:29.443Z,15.50
2018-11-12T13:45:57.913Z,15.50
2018-11-12T13:48:26.395Z,15.40
2018-11-12T13:50:54.874Z,15.40
2018-11-12T13:53:23.365Z,15.30
2018-11-12T13:55:51.856Z,15.20
2018-11-12T13:58:20.360Z,15.20
2018-11-12T14:00:48.819Z,15.10
2018-11-12T14:03:17.332Z,15.20
2018-11-12T14:05:45.838Z,15.20
2018-11-12T14:08:14.349Z,15.30
2018-11-12T14:10:42.834Z,15.30
2018-11-12T14:13:11.339Z,15.30
2018-11-12T14:15:39.825Z,15.30
2018-11-12T14:18:08.309Z,15.10
2018-11-12T14:20:36.949Z,15.00
2018-11-12T14:23:05.453Z,15.00
2018-11-12T14:25:33.937Z,15.00
2018-11-12T14:28:02.508Z,14.90
2018-11-12T14:30:31.275Z,14.90
2018-11-12T14:32:59.746Z,14.90
2018-11-12T14:35:31.417Z,14.90
2018-11-12T14:38:09.018Z,14.80
2018-11-12T14:40:37.457Z,14.70
2018-11-12T14:43:06.040Z,14.70
2018-11-12T14:45:34.481Z,14.70
2018-11-12T14:48:02.970Z,14.70
2018-11-12T14:50:31.436Z,14.70
2018-11-12T14:52:59.880Z,14.80
2018-11-12T14:55:28.342Z,14.70
2018-11-12T14:57:56.800Z,14.70
2018-11-12T15:00:26.404Z,14.80
2018-11-12T15:02:55.411Z,14.80
2018-11-12T15:05:24.949Z,14.80
2018-11-12T15:07:53.425Z,14.80
2018-11-12T15:10:21.895Z,14.80
2018-11-12T15:12:50.656Z,14.70
2018-11-12T15:15:19.105Z,14.70
2018-11-12T15:17:47.589Z,14.70
2018-11-12T15:20:17.413Z,14.70
2018-11-12T15:22:46.095Z,14.80
2018-11-12T15:25:16.158Z,14.70
2018-11-12T15:27:45.088Z,14.40
2018-11-12T15:30:16.992Z,14.10
2018-11-12T15:32:46.348Z,14.10
2018-11-12T15:35:14.977Z,14.30
2018-11-12T15:37:44.193Z,13.90
2018-11-12T15:40:13.358Z,13.90
2018-11-12T15:42:42.064Z,13.90
2018-11-12T15:45:13.292Z,14.10
2018-11-12T15:47:42.191Z,14.00
2018-11-12T15:50:15.884Z,14.00
2018-11-12T15:52:44.856Z,14.00
2018-11-12T15:55:13.405Z,13.70
2018-11-12T15:57:41.928Z,13.80
2018-11-12T16:00:13.274Z,13.60
2018-11-12T16:02:41.861Z,13.40
2018-11-12T16:05:11.252Z,13.40
2018-11-12T16:07:39.825Z,13.50
2018-11-12T16:10:14.680Z,13.40
2018-11-12T16:12:43.231Z,13.30
2018-11-12T16:15:12.716Z,13.30
2018-11-12T16:17:41.467Z,13.30
2018-11-12T16:20:13.731Z,13.00
2018-11-12T16:22:42.419Z,12.90
2018-11-12T16:25:10.982Z,12.60
2018-11-12T16:27:39.683Z,12.50
2018-11-12T16:30:09.397Z,12.50
2018-11-12T16:32:38.011Z,12.40
2018-11-12T16:35:08.252Z,12.40
2018-11-12T16:37:36.774Z,12.30
2018-11-12T16:40:05.460Z,12.00
2018-11-12T16:42:33.896Z,12.00
2018-11-12T16:45:02.434Z,12.10
2018-11-12T16:47:30.913Z,12.10
2018-11-12T16:49:59.366Z,12.10
2018-11-12T16:52:27.866Z,12.10
2018-11-12T16:54:56.320Z,11.90
2018-11-12T16:57:24.789Z,11.80
2018-11-12T16:59:53.229Z,11.90
2018-11-12T17:02:21.692Z,11.60
2018-11-12T17:04:50.142Z,11.50
2018-11-12T17:07:18.616Z,11.40
2018-11-12T17:09:47.156Z,11.20
2018-11-12T17:12:15.627Z,11.50
2018-11-12T17:14:44.120Z,11.60
2018-11-12T17:17:12.625Z,11.40
2018-11-12T17:19:41.064Z,11.20
2018-11-12T17:22:09.535Z,11.10
2018-11-12T17:24:37.984Z,11.00
2018-11-12T17:27:06.528Z,11.00
2018-11-12T17:29:34.996Z,10.90
2018-11-12T17:32:03.511Z,11.20
2018-11-12T17:34:31.987Z,11.40
2018-11-12T17:37:00.457Z,11.40
2018-11-12T17:39:28.950Z,11.20
2018-11-12T17:41:57.441Z,11.20
2018-11-12T17:44:26.028Z,11.20
2018-11-12T17:46:54.505Z,11.20
2018-11-12T17:49:22.971Z,11.20
2018-11-12T17:51:51.460Z,10.90
2018-11-12T17:54:20.002Z,10.90
2018-11-12T17:56:48.443Z,10.80
2018-11-12T17:59:16.947Z,10.70
2018-11-12T18:01:45.425Z,10.80
2018-11-12T18:04:14.015Z,11.00
2018-11-12T18:06:42.484Z,11.10
2018-11-12T18:09:11.764Z,10.90
2018-11-12T18:11:40.263Z,10.90
2018-11-12T18:14:10.316Z,10.90
2018-11-12T18:16:38.856Z,10.90
2018-11-12T18:19:07.845Z,10.90
2018-11-12T18:21:36.364Z,11.00
2018-11-12T18:24:05.430Z,11.00
2018-11-12T18:26:33.915Z,11.10
2018-11-12T18:29:02.411Z,10.90
2018-11-12T18:31:31.371Z,11.00
2018-11-12T18:33:59.775Z,10.90
2018-11-12T18:36:28.260Z,10.90
2018-11-12T18:38:56.760Z,10.80
2018-11-12T18:41:25.252Z,10.70
2018-11-12T18:43:53.729Z,10.50
2018-11-12T18:46:22.257Z,10.40
2018-11-12T18:48:54.468Z,10.00
2018-11-12T18:51:22.928Z,10.20
2018-11-12T18:53:51.431Z,10.40
2018-11-12T18:56:19.930Z,10.40
2018-11-12T18:58:48.433Z,10.40
2018-11-12T19:01:16.901Z,10.60
2018-11-12T19:03:45.364Z,10.60
2018-11-12T19:06:13.844Z,10.60
2018-11-12T19:08:42.326Z,10.70
2018-11-12T19:11:10.807Z,10.60
2018-11-12T19:13:39.313Z,10.80
2018-11-12T19:16:07.846Z,10.80
2018-11-12T19:18:36.327Z,10.80
2018-11-12T19:21:05.063Z,10.80
2018-11-12T19:23:33.508Z,10.50
2018-11-12T19:26:02.010Z,10.50
2018-11-12T19:28:30.524Z,10.20
2018-11-12T19:30:58.988Z,10.20
2018-11-12T19:33:27.419Z,10.00
2018-11-12T19:35:55.888Z,10.00
2018-11-12T19:38:24.337Z,9.90
2018-11-12T19:40:52.823Z,9.40
2018-11-12T19:43:21.253Z,9.60
2018-11-12T19:45:49.738Z,9.40
2018-11-12T19:48:18.194Z,9.30
2018-11-12T19:50:46.652Z,9.50
2018-11-12T19:53:15.084Z,9.50
2018-11-12T19:55:43.535Z,9.70
2018-11-12T19:58:12.000Z,9.90
2018-11-12T20:00:40.454Z,9.90
2018-11-12T20:03:08.973Z,9.90
2018-11-12T20:05:38.292Z,10.00
2018-11-12T20:08:10.121Z,10.00
2018-11-12T20:10:38.620Z,10.10
2018-11-12T20:13:07.142Z,10.20
2018-11-12T20:15:35.647Z,10.20
2018-11-12T20:18:04.117Z,10.30
2018-11-12T20:20:33.483Z,10.30
2018-11-12T20:23:02.032Z,10.40
2018-11-12T20:25:30.556Z,10.30
2018-11-12T20:27:59.460Z,10.10
2018-11-12T20:30:30.743Z,10.20
2018-11-12T20:32:59.252Z,10.30
2018-11-12T20:35:27.754Z,10.40
2018-11-12T20:37:56.283Z,10.40
2018-11-12T20:40:24.759Z,10.40
2018-11-12T20:42:53.289Z,10.40
2018-11-12T20:45:22.244Z,10.40
2018-11-12T20:47:52.151Z,10.40
2018-11-12T20:50:20.715Z,10.40
2018-11-12T20:52:49.214Z,10.10
2018-11-12T20:55:18.477Z,9.50
2018-11-12T20:57:47.065Z,9.60
2018-11-12T21:00:17.831Z,9.80
2018-11-12T21:02:47.643Z,9.90
2018-11-12T21:05:16.430Z,9.80
2018-11-12T21:07:44.903Z,9.80
2018-11-12T21:10:15.417Z,9.70
2018-11-12T21:12:44.086Z,9.70
2018-11-12T21:15:13.728Z,9.70
2018-11-12T21:17:42.289Z,9.80
2018-11-12T21:20:26.606Z,9.80
2018-11-12T21:22:55.469Z,9.80
2018-11-12T21:25:25.158Z,9.80
2018-11-12T21:27:53.667Z,9.80
2018-11-12T21:30:23.337Z,9.80
2018-11-12T21:32:51.848Z,9.80
2018-11-12T21:35:20.404Z,9.50
2018-11-12T21:37:49.508Z,9.40
2018-11-12T21:40:19.319Z,9.70
2018-11-12T21:42:47.822Z,9.80
2018-11-12T21:45:17.836Z,9.70
2018-11-12T21:47:46.338Z,9.60
2018-11-12T21:50:16.235Z,9.70
2018-11-12T21:52:44.696Z,9.70
2018-11-12T21:55:13.724Z,9.70
2018-11-12T21:57:42.641Z,9.60
2018-11-12T22:00:31.470Z,9.60
2018-11-12T22:03:04.680Z,9.60
2018-11-12T22:05:33.740Z,9.70
2018-11-12T22:08:03.203Z,9.50
2018-11-12T22:10:31.695Z,9.40
2018-11-12T22:13:00.141Z,9.30
2018-11-12T22:15:28.620Z,9.30
2018-11-12T22:17:57.080Z,9.50
2018-11-12T22:20:26.897Z,9.50
2018-11-12T22:22:55.361Z,9.50
2018-11-12T22:25:24.254Z,9.50
2018-11-12T22:27:53.393Z,9.50
2018-11-12T22:30:22.989Z,9.50
2018-11-12T22:32:52.465Z,9.60
2018-11-12T22:35:20.943Z,9.40
2018-11-12T22:37:49.579Z,9.40
2018-11-12T22:40:18.687Z,9.40
2018-11-12T22:42:48.128Z,9.10
2018-11-12T22:45:17.963Z,9.20
2018-11-12T22:47:46.993Z,9.10
2018-11-12T22:50:15.424Z,9.30
2018-11-12T22:52:44.490Z,9.30
2018-11-12T22:55:14.118Z,9.40
2018-11-12T22:57:42.570Z,9.40
2018-11-12T23:00:21.682Z,9.20
2018-11-12T23:02:50.549Z,9.00
2018-11-12T23:05:19.508Z,9.20
2018-11-12T23:07:48.480Z,8.50
2018-11-12T23:10:17.519Z,8.00
2018-11-12T23:12:46.011Z,8.10
2018-11-12T23:15:14.793Z,8.40
2018-11-12T23:17:43.254Z,8.50
2018-11-12T23:20:21.411Z,8.30
2018-11-12T23:22:50.283Z,8.30
2018-11-12T23:25:18.804Z,8.30
2018-11-12T23:27:47.873Z,7.90
2018-11-12T23:30:17.446Z,8.10
2018-11-12T23:32:45.927Z,8.10
2018-11-12T23:35:16.540Z,8.20
2018-11-12T23:37:45.560Z,8.40
2018-11-12T23:40:14.432Z,8.50
2018-11-12T23:42:43.563Z,8.60
2018-11-12T23:45:12.064Z,8.60
2018-11-12T23:47:40.729Z,8.50
2018-11-12T23:50:12.460Z,8.40
2018-11-12T23:52:40.956Z,8.20
2018-11-12T23:55:09.491Z,8.00
2018-11-12T23:57:38.064Z,8.10
